<?xml version="1.0" encoding="UTF-8" standalone="no" ?>
<gpx xmlns="http://www.topografix.com/GPX/1/1" xmlns:xsi="http://www.w3.org/2001/XMLSchema-instance" xsi:schemaLocation="http://www.topografix.com/GPX/1/1 http://www.topografix.com/GPX/1/1/gpx.xsd" version="1.1" creator="VisuGPX - https://www.visugpx.com">
  <metadata>
    <name>Vacances 2021</name>
  </metadata>
  <trk>
    <name><![CDATA[Journal actif: 2021-07-23 17:32]]></name>
    <trkseg>
      <trkpt lat="49.20955" lon="5.36569">
        <ele>191.44</ele>
        <time>2021-07-23T19:32:43Z</time>
      </trkpt>
      <trkpt lat="49.20959" lon="5.36554">
        <ele>191.92</ele>
        <time>2021-07-23T19:33:00Z</time>
      </trkpt>
      <trkpt lat="49.20961" lon="5.36554">
        <ele>191.92</ele>
        <time>2021-07-23T19:33:04Z</time>
      </trkpt>
      <trkpt lat="49.20961" lon="5.36554">
        <ele>191.92</ele>
        <time>2021-07-23T19:33:05Z</time>
      </trkpt>
      <trkpt lat="49.20963" lon="5.36555">
        <ele>191.92</ele>
        <time>2021-07-23T19:33:06Z</time>
      </trkpt>
      <trkpt lat="49.20966" lon="5.36555">
        <ele>192.4</ele>
        <time>2021-07-23T19:33:07Z</time>
      </trkpt>
      <trkpt lat="49.2097" lon="5.36556">
        <ele>192.4</ele>
        <time>2021-07-23T19:33:08Z</time>
      </trkpt>
      <trkpt lat="49.20973" lon="5.36557">
        <ele>192.4</ele>
        <time>2021-07-23T19:33:09Z</time>
      </trkpt>
      <trkpt lat="49.21002" lon="5.36564">
        <ele>191.92</ele>
        <time>2021-07-23T19:33:21Z</time>
      </trkpt>
      <trkpt lat="49.21006" lon="5.36565">
        <ele>190.96</ele>
        <time>2021-07-23T19:33:33Z</time>
      </trkpt>
      <trkpt lat="49.21006" lon="5.36565">
        <ele>190.96</ele>
        <time>2021-07-23T19:34:40Z</time>
      </trkpt>
      <trkpt lat="49.21006" lon="5.36565">
        <ele>190.96</ele>
        <time>2021-07-23T19:34:41Z</time>
      </trkpt>
      <trkpt lat="49.21006" lon="5.36565">
        <ele>190.96</ele>
        <time>2021-07-23T19:34:45Z</time>
      </trkpt>
      <trkpt lat="49.21002" lon="5.36564">
        <ele>190.96</ele>
        <time>2021-07-23T19:34:46Z</time>
      </trkpt>
      <trkpt lat="49.21052" lon="5.36578">
        <ele>190.48</ele>
        <time>2021-07-23T19:34:56Z</time>
      </trkpt>
      <trkpt lat="49.21097" lon="5.3659">
        <ele>190.96</ele>
        <time>2021-07-23T19:35:06Z</time>
      </trkpt>
      <trkpt lat="49.21106" lon="5.36593">
        <ele>191.92</ele>
        <time>2021-07-23T19:35:17Z</time>
      </trkpt>
      <trkpt lat="49.21108" lon="5.36593">
        <ele>190.96</ele>
        <time>2021-07-23T19:35:27Z</time>
      </trkpt>
      <trkpt lat="49.21105" lon="5.36592">
        <ele>190.96</ele>
        <time>2021-07-23T19:35:33Z</time>
      </trkpt>
      <trkpt lat="49.21105" lon="5.36592">
        <ele>190.96</ele>
        <time>2021-07-23T19:35:34Z</time>
      </trkpt>
      <trkpt lat="49.21102" lon="5.36592">
        <ele>190.96</ele>
        <time>2021-07-23T19:35:35Z</time>
      </trkpt>
      <trkpt lat="49.21099" lon="5.36591">
        <ele>190.96</ele>
        <time>2021-07-23T19:35:36Z</time>
      </trkpt>
      <trkpt lat="49.21095" lon="5.3659">
        <ele>191.44</ele>
        <time>2021-07-23T19:35:37Z</time>
      </trkpt>
      <trkpt lat="49.21082" lon="5.36586">
        <ele>190.96</ele>
        <time>2021-07-23T19:35:40Z</time>
      </trkpt>
      <trkpt lat="49.21072" lon="5.36583">
        <ele>190.48</ele>
        <time>2021-07-23T19:35:41Z</time>
      </trkpt>
      <trkpt lat="49.21072" lon="5.36583">
        <ele>190.96</ele>
        <time>2021-07-23T19:35:42Z</time>
      </trkpt>
      <trkpt lat="49.21021" lon="5.36569">
        <ele>190</ele>
        <time>2021-07-23T19:35:53Z</time>
      </trkpt>
      <trkpt lat="49.21015" lon="5.36568">
        <ele>190.96</ele>
        <time>2021-07-23T19:36:03Z</time>
      </trkpt>
    </trkseg>
  </trk>
</gpx>